Terminal Aerodrome Forecast
Issued by NWS Mt. Holly, NJ

Home | Current Version | Previous Version | Text Only | Print | Product List | Glossary On
Versions: 1 2 3 4 5 6 7 8 9 10 11 12 13 14 15 16 17 18 19 20 21 22 23 24 25 26
862
FTUS41 KPHI 170521
TAFPHL
TAF
KPHL 170521Z 1706/1812 01004KT P6SM -RA OVC015
     FM170800 33006KT 2SM -SN OVC008
     FM171100 32010G18KT 4SM -SN OVC012
     FM171400 31012G20KT P6SM OVC025
     FM171600 31012G22KT P6SM BKN100
     FM172300 31010KT P6SM SCT250=

USA.gov is the U.S. government's official web portal to all federal, state and local government web resources and services.